sensor_id;sensor_type;location;lat;lon;timestamp;pressure;altitude;pressure_sealevel;temperature;humidity
23253;BME280;11795;47.054;15.408;2023-09-08T00:01:58;98030;;;16.8;87.1
23253;BME280;11795;47.054;15.408;2023-09-08T00:03:58;98030;;;17.0;86.2
23253;BME280;11795;47.054;15.408;2023-09-08T00:05:58;98040;;;16.9;86.6
23253;BME280;11795;47.054;15.408;2023-09-08T00:07:58;98040;;;17.0;85.7
23253;BME280;11795;47.054;15.408;2023-09-08T00:09:58;98040;;;16.8;86.5
23253;BME280;11795;47.054;15.408;2023-09-08T00:11:59;98040;;;16.7;87.3
23253;BME280;11795;47.054;15.408;2023-09-08T00:13:58;98040;;;16.7;87.5
23253;BME280;11795;47.054;15.408;2023-09-08T00:15:58;98040;;;16.5;89.0
23253;BME280;11795;47.054;15.408;2023-09-08T00:17:58;98030;;;16.7;87.9
23253;BME280;11795;47.054;15.408;2023-09-08T00:19:58;98030;;;16.6;88.0
23253;BME280;11795;47.054;15.408;2023-09-08T00:21:58;98030;;;16.6;88.2
23253;BME280;11795;47.054;15.408;2023-09-08T00:23:58;98020;;;16.7;87.4
23253;BME280;11795;47.054;15.408;2023-09-08T00:25:58;98030;;;16.6;88.2
23253;BME280;11795;47.054;15.408;2023-09-08T00:27:58;98020;;;16.7;88.0
23253;BME280;11795;47.054;15.408;2023-09-08T00:29:58;98020;;;16.5;88.8
23253;BME280;11795;47.054;15.408;2023-09-08T00:31:58;98020;;;16.4;89.7
23253;BME280;11795;47.054;15.408;2023-09-08T00:33:58;98020;;;16.5;89.0
23253;BME280;11795;47.054;15.408;2023-09-08T00:35:58;98020;;;16.4;89.6
23253;BME280;11795;47.054;15.408;2023-09-08T00:37:58;98020;;;16.5;89.1
23253;BME280;11795;47.054;15.408;2023-09-08T00:39:58;98020;;;16.2;90.6
23253;BME280;11795;47.054;15.408;2023-09-08T00:41:58;98020;;;16.2;91.2
23253;BME280;11795;47.054;15.408;2023-09-08T00:43:58;98020;;;16.4;89.5
23253;BME280;11795;47.054;15.408;2023-09-08T00:45:59;98020;;;16.3;90.0
23253;BME280;11795;47.054;15.408;2023-09-08T00:47:58;98020;;;16.5;89.4
23253;BME280;11795;47.054;15.408;2023-09-08T00:49:58;98010;;;16.3;90.0
23253;BME280;11795;47.054;15.408;2023-09-08T00:51:58;98010;;;16.2;90.5
23253;BME280;11795;47.054;15.408;2023-09-08T00:53:58;98010;;;16.4;89.6
23253;BME280;11795;47.054;15.408;2023-09-08T00:55:59;98010;;;16.3;90.2
23253;BME280;11795;47.054;15.408;2023-09-08T00:57:59;98010;;;16.4;89.7
23253;BME280;11795;47.054;15.408;2023-09-08T00:59:58;98010;;;16.2;90.2
23253;BME280;11795;47.054;15.408;2023-09-08T01:01:58;98010;;;16.1;91.0
23253;BME280;11795;47.054;15.408;2023-09-08T01:03:58;98010;;;16.2;90.6
23253;BME280;11795;47.054;15.408;2023-09-08T01:05:58;98010;;;16.1;91.7
23253;BME280;11795;47.054;15.408;2023-09-08T01:07:59;98010;;;16.3;90.7
23253;BME280;11795;47.054;15.408;2023-09-08T01:10:04;98010;;;16.2;90.9
23253;BME280;11795;47.054;15.408;2023-09-08T01:12:02;98010;;;16.1;91.6
23253;BME280;11795;47.054;15.408;2023-09-08T01:13:58;98000;;;16.2;91.0
23253;BME280;11795;47.054;15.408;2023-09-08T01:15:58;98000;;;16.2;91.7
23253;BME280;11795;47.054;15.408;2023-09-08T01:17:58;98000;;;16.4;91.0
23253;BME280;11795;47.054;15.408;2023-09-08T01:20:00;98000;;;16.2;91.6
23253;BME280;11795;47.054;15.408;2023-09-08T01:24:08;98000;;;16.1;92.2
23253;BME280;11795;47.054;15.408;2023-09-08T01:26:03;98000;;;16.0;93.2
23253;BME280;11795;47.054;15.408;2023-09-08T01:28:01;98000;;;16.1;92.8
23253;BME280;11795;47.054;15.408;2023-09-08T01:29:59;97990;;;16.0;93.7
23253;BME280;11795;47.054;15.408;2023-09-08T01:31:58;98000;;;15.9;94.3
23253;BME280;11795;47.054;15.408;2023-09-08T01:34:00;98000;;;16.0;93.2
23253;BME280;11795;47.054;15.408;2023-09-08T01:35:58;97990;;;15.8;94.1
23253;BME280;11795;47.054;15.408;2023-09-08T01:37:58;98000;;;16.0;93.3
23253;BME280;11795;47.054;15.408;2023-09-08T01:39:58;97990;;;15.9;93.5
23253;BME280;11795;47.054;15.408;2023-09-08T01:41:58;98000;;;15.8;93.8
23253;BME280;11795;47.054;15.408;2023-09-08T01:43:58;97990;;;16.0;92.5
23253;BME280;11795;47.054;15.408;2023-09-08T01:45:58;98000;;;15.9;93.2
23253;BME280;11795;47.054;15.408;2023-09-08T01:47:58;97990;;;16.0;92.8
23253;BME280;11795;47.054;15.408;2023-09-08T01:49:58;97990;;;15.9;93.5
23253;BME280;11795;47.054;15.408;2023-09-08T01:51:58;97990;;;15.8;94.4
23253;BME280;11795;47.054;15.408;2023-09-08T01:53:58;97990;;;15.9;93.0
23253;BME280;11795;47.054;15.408;2023-09-08T01:55:58;97990;;;15.9;93.3
23253;BME280;11795;47.054;15.408;2023-09-08T01:57:58;97990;;;16.0;92.8
23253;BME280;11795;47.054;15.408;2023-09-08T01:59:58;98000;;;15.9;93.3
23253;BME280;11795;47.054;15.408;2023-09-08T02:01:58;98000;;;15.8;93.7
23253;BME280;11795;47.054;15.408;2023-09-08T02:03:58;97990;;;15.9;92.9
23253;BME280;11795;47.054;15.408;2023-09-08T02:05:58;98000;;;15.7;94.0
23253;BME280;11795;47.054;15.408;2023-09-08T02:07:58;98000;;;15.9;93.4
23253;BME280;11795;47.054;15.408;2023-09-08T02:09:58;98000;;;15.7;93.7
23253;BME280;11795;47.054;15.408;2023-09-08T02:11:58;97990;;;15.7;94.3
23253;BME280;11795;47.054;15.408;2023-09-08T02:13:58;97990;;;15.8;92.8
23253;BME280;11795;47.054;15.408;2023-09-08T02:15:58;97990;;;15.7;93.5
23253;BME280;11795;47.054;15.408;2023-09-08T02:17:58;97980;;;15.8;93.2
23253;BME280;11795;47.054;15.408;2023-09-08T02:19:58;97990;;;15.6;93.6
23253;BME280;11795;47.054;15.408;2023-09-08T02:21:58;97990;;;15.5;94.6
23253;BME280;11795;47.054;15.408;2023-09-08T02:23:58;97990;;;15.7;93.5
23253;BME280;11795;47.054;15.408;2023-09-08T02:25:58;97990;;;15.5;94.5
23253;BME280;11795;47.054;15.408;2023-09-08T02:27:58;97990;;;15.8;93.6
23253;BME280;11795;47.054;15.408;2023-09-08T02:29:58;97990;;;15.6;93.4
23253;BME280;11795;47.054;15.408;2023-09-08T02:31:58;97990;;;15.6;93.7
23253;BME280;11795;47.054;15.408;2023-09-08T02:33:58;97990;;;15.7;92.9
23253;BME280;11795;47.054;15.408;2023-09-08T02:36:01;97990;;;15.6;93.4
23253;BME280;11795;47.054;15.408;2023-09-08T02:37:58;97990;;;15.8;92.9
23253;BME280;11795;47.054;15.408;2023-09-08T02:39:58;97990;;;15.7;93.0
23253;BME280;11795;47.054;15.408;2023-09-08T02:41:58;97990;;;15.5;93.8
23253;BME280;11795;47.054;15.408;2023-09-08T02:43:58;97990;;;15.7;92.6
23253;BME280;11795;47.054;15.408;2023-09-08T02:45:58;97990;;;15.5;93.3
23253;BME280;11795;47.054;15.408;2023-09-08T02:47:58;98000;;;15.7;93.0
23253;BME280;11795;47.054;15.408;2023-09-08T02:49:58;97990;;;15.4;93.4
23253;BME280;11795;47.054;15.408;2023-09-08T02:51:58;97990;;;15.3;94.5
23253;BME280;11795;47.054;15.408;2023-09-08T02:53:58;97990;;;15.5;93.5
23253;BME280;11795;47.054;15.408;2023-09-08T02:55:59;97990;;;15.4;93.9
23253;BME280;11795;47.054;15.408;2023-09-08T02:57:58;97990;;;15.6;93.4
23253;BME280;11795;47.054;15.408;2023-09-08T02:59:58;97990;;;15.4;93.4
23253;BME280;11795;47.054;15.408;2023-09-08T03:01:59;97990;;;15.3;93.9
23253;BME280;11795;47.054;15.408;2023-09-08T03:03:58;97990;;;15.5;92.9
23253;BME280;11795;47.054;15.408;2023-09-08T03:06:03;97980;;;15.3;93.9
23253;BME280;11795;47.054;15.408;2023-09-08T03:07:58;97980;;;15.4;93.9
23253;BME280;11795;47.054;15.408;2023-09-08T03:09:58;97980;;;15.2;94.6
23253;BME280;11795;47.054;15.408;2023-09-08T03:11:59;97990;;;15.2;95.5
23253;BME280;11795;47.054;15.408;2023-09-08T03:13:58;97980;;;15.4;94.1
23253;BME280;11795;47.054;15.408;2023-09-08T03:16:02;97980;;;15.3;94.6
23253;BME280;11795;47.054;15.408;2023-09-08T03:17:58;97990;;;15.4;94.8
23253;BME280;11795;47.054;15.408;2023-09-08T03:19:58;97990;;;15.3;94.8
23253;BME280;11795;47.054;15.408;2023-09-08T03:21:58;97990;;;15.2;95.7
23253;BME280;11795;47.054;15.408;2023-09-08T03:23:58;97980;;;15.3;95.3
23253;BME280;11795;47.054;15.408;2023-09-08T03:25:58;97980;;;15.2;96.3
23253;BME280;11795;47.054;15.408;2023-09-08T03:27:58;97980;;;15.3;95.9
23253;BME280;11795;47.054;15.408;2023-09-08T03:29:58;97980;;;15.2;95.7
23253;BME280;11795;47.054;15.408;2023-09-08T03:31:58;97980;;;15.2;96.0
23253;BME280;11795;47.054;15.408;2023-09-08T03:33:58;97980;;;15.3;95.0
23253;BME280;11795;47.054;15.408;2023-09-08T03:35:58;97980;;;15.2;95.5
23253;BME280;11795;47.054;15.408;2023-09-08T03:37:58;97980;;;15.3;95.2
23253;BME280;11795;47.054;15.408;2023-09-08T03:39:58;97970;;;15.2;95.0
23253;BME280;11795;47.054;15.408;2023-09-08T03:41:58;97980;;;15.1;95.6
23253;BME280;11795;47.054;15.408;2023-09-08T03:43:58;97980;;;15.2;94.7
23253;BME280;11795;47.054;15.408;2023-09-08T03:45:58;97980;;;15.1;95.4
23253;BME280;11795;47.054;15.408;2023-09-08T03:47:58;97980;;;15.2;95.5
23253;BME280;11795;47.054;15.408;2023-09-08T03:49:58;97980;;;15.1;95.5
23253;BME280;11795;47.054;15.408;2023-09-08T03:51:58;97980;;;15.1;95.9
23253;BME280;11795;47.054;15.408;2023-09-08T03:53:58;97980;;;15.2;94.9
23253;BME280;11795;47.054;15.408;2023-09-08T03:55:58;97990;;;15.0;96.5
23253;BME280;11795;47.054;15.408;2023-09-08T03:57:58;97990;;;15.1;96.7
23253;BME280;11795;47.054;15.408;2023-09-08T03:59:58;97980;;;15.0;96.7
23253;BME280;11795;47.054;15.408;2023-09-08T04:01:58;97990;;;15.0;96.8
23253;BME280;11795;47.054;15.408;2023-09-08T04:03:58;97980;;;15.1;95.6
23253;BME280;11795;47.054;15.408;2023-09-08T04:05:58;97990;;;15.0;96.2
23253;BME280;11795;47.054;15.408;2023-09-08T04:07:58;97990;;;15.1;96.2
23253;BME280;11795;47.054;15.408;2023-09-08T04:09:58;97980;;;15.0;96.3
23253;BME280;11795;47.054;15.408;2023-09-08T04:11:58;97980;;;14.9;97.1
23253;BME280;11795;47.054;15.408;2023-09-08T04:13:58;97980;;;15.0;96.4
23253;BME280;11795;47.054;15.408;2023-09-08T04:15:58;97990;;;14.9;97.2
23253;BME280;11795;47.054;15.408;2023-09-08T04:17:58;97980;;;14.9;97.5
23253;BME280;11795;47.054;15.408;2023-09-08T04:19:58;97990;;;14.9;96.8
23253;BME280;11795;47.054;15.408;2023-09-08T04:21:58;97990;;;14.9;97.2
23253;BME280;11795;47.054;15.408;2023-09-08T04:23:58;97990;;;15.0;96.1
23253;BME280;11795;47.054;15.408;2023-09-08T04:25:58;97990;;;14.9;96.7
23253;BME280;11795;47.054;15.408;2023-09-08T04:27:58;97990;;;14.9;97.0
23253;BME280;11795;47.054;15.408;2023-09-08T04:29:59;97990;;;14.9;96.4
23253;BME280;11795;47.054;15.408;2023-09-08T04:31:58;98000;;;14.8;97.0
23253;BME280;11795;47.054;15.408;2023-09-08T04:33:58;98000;;;15.0;96.2
23253;BME280;11795;47.054;15.408;2023-09-08T04:35:58;98000;;;14.8;96.8
23253;BME280;11795;47.054;15.408;2023-09-08T04:37:58;98000;;;14.9;97.3
23253;BME280;11795;47.054;15.408;2023-09-08T04:39:58;98000;;;14.9;96.6
23253;BME280;11795;47.054;15.408;2023-09-08T04:41:58;98000;;;14.8;97.5
23253;BME280;11795;47.054;15.408;2023-09-08T04:43:58;98010;;;15.0;97.0
23253;BME280;11795;47.054;15.408;2023-09-08T04:45:58;98000;;;14.8;97.9
23253;BME280;11795;47.054;15.408;2023-09-08T04:47:58;98000;;;14.9;97.9
23253;BME280;11795;47.054;15.408;2023-09-08T04:49:58;98000;;;15.0;97.4
23253;BME280;11795;47.054;15.408;2023-09-08T04:51:58;98010;;;14.9;98.1
23253;BME280;11795;47.054;15.408;2023-09-08T04:53:58;98010;;;15.1;97.0
23253;BME280;11795;47.054;15.408;2023-09-08T04:55:58;98010;;;15.0;97.5
23253;BME280;11795;47.054;15.408;2023-09-08T04:57:58;98000;;;15.1;97.4
23253;BME280;11795;47.054;15.408;2023-09-08T04:59:58;98000;;;15.1;96.8
23253;BME280;11795;47.054;15.408;2023-09-08T05:01:58;98010;;;15.1;97.3
23253;BME280;11795;47.054;15.408;2023-09-08T05:03:58;98010;;;15.2;96.7
23253;BME280;11795;47.054;15.408;2023-09-08T05:05:58;98010;;;15.1;97.5
23253;BME280;11795;47.054;15.408;2023-09-08T05:07:58;98010;;;15.3;97.4
23253;BME280;11795;47.054;15.408;2023-09-08T05:09:58;98010;;;15.3;97.3
23253;BME280;11795;47.054;15.408;2023-09-08T05:12:00;98020;;;15.3;97.9
23253;BME280;11795;47.054;15.408;2023-09-08T05:13:58;98010;;;15.7;97.2
23253;BME280;11795;47.054;15.408;2023-09-08T05:16:00;98010;;;16.0;96.4
23253;BME280;11795;47.054;15.408;2023-09-08T05:17:58;98010;;;16.4;94.7
23253;BME280;11795;47.054;15.408;2023-09-08T05:19:58;98020;;;16.6;92.4
23253;BME280;11795;47.054;15.408;2023-09-08T05:21:58;98010;;;16.7;91.4
23253;BME280;11795;47.054;15.408;2023-09-08T05:23:58;98020;;;17.0;89.9
23253;BME280;11795;47.054;15.408;2023-09-08T05:25:58;98020;;;17.0;90.5
23253;BME280;11795;47.054;15.408;2023-09-08T05:27:58;98020;;;17.1;89.9
23253;BME280;11795;47.054;15.408;2023-09-08T05:29:58;98020;;;17.2;87.3
23253;BME280;11795;47.054;15.408;2023-09-08T05:31:58;98020;;;17.3;87.5
23253;BME280;11795;47.054;15.408;2023-09-08T05:33:58;98020;;;17.5;84.6
23253;BME280;11795;47.054;15.408;2023-09-08T05:35:58;98020;;;17.4;84.6
23253;BME280;11795;47.054;15.408;2023-09-08T05:37:58;98020;;;17.4;85.1
23253;BME280;11795;47.054;15.408;2023-09-08T05:39:58;98020;;;17.5;84.4
23253;BME280;11795;47.054;15.408;2023-09-08T05:41:58;98020;;;17.5;84.8
23253;BME280;11795;47.054;15.408;2023-09-08T05:43:58;98020;;;17.8;83.7
23253;BME280;11795;47.054;15.408;2023-09-08T05:45:58;98020;;;17.8;84.0
23253;BME280;11795;47.054;15.408;2023-09-08T05:47:58;98020;;;18.0;83.5
23253;BME280;11795;47.054;15.408;2023-09-08T05:49:58;98020;;;18.2;81.7
23253;BME280;11795;47.054;15.408;2023-09-08T05:51:58;98020;;;18.2;81.0
23253;BME280;11795;47.054;15.408;2023-09-08T05:53:58;98020;;;18.5;80.2
23253;BME280;11795;47.054;15.408;2023-09-08T05:55:58;98020;;;18.6;79.4
23253;BME280;11795;47.054;15.408;2023-09-08T05:57:58;98020;;;18.7;78.3
23253;BME280;11795;47.054;15.408;2023-09-08T05:59:58;98020;;;18.7;77.4
23253;BME280;11795;47.054;15.408;2023-09-08T06:01:58;98020;;;18.7;77.6
23253;BME280;11795;47.054;15.408;2023-09-08T06:03:58;98020;;;19.0;76.7
23253;BME280;11795;47.054;15.408;2023-09-08T06:05:58;98020;;;19.0;77.2
23253;BME280;11795;47.054;15.408;2023-09-08T06:07:58;98020;;;19.2;76.4
23253;BME280;11795;47.054;15.408;2023-09-08T06:09:58;98030;;;19.3;75.2
23253;BME280;11795;47.054;15.408;2023-09-08T06:11:58;98030;;;19.4;75.5
23253;BME280;11795;47.054;15.408;2023-09-08T06:13:59;98030;;;19.7;73.9
23253;BME280;11795;47.054;15.408;2023-09-08T06:15:58;98030;;;19.6;73.0
23253;BME280;11795;47.054;15.408;2023-09-08T06:17:58;98020;;;19.5;72.7
23253;BME280;11795;47.054;15.408;2023-09-08T06:19:58;98030;;;19.6;73.4
23253;BME280;11795;47.054;15.408;2023-09-08T06:21:58;98030;;;19.6;74.0
23253;BME280;11795;47.054;15.408;2023-09-08T06:23:58;98030;;;19.8;72.7
23253;BME280;11795;47.054;15.408;2023-09-08T06:26:00;98030;;;19.8;72.9
23253;BME280;11795;47.054;15.408;2023-09-08T06:27:58;98030;;;19.9;72.8
23253;BME280;11795;47.054;15.408;2023-09-08T06:29:58;98020;;;20.1;72.9
23253;BME280;11795;47.054;15.408;2023-09-08T06:31:58;98020;;;20.1;71.7
23253;BME280;11795;47.054;15.408;2023-09-08T06:33:58;98020;;;20.4;71.0
23253;BME280;11795;47.054;15.408;2023-09-08T06:35:58;98020;;;20.4;70.7
23253;BME280;11795;47.054;15.408;2023-09-08T06:37:58;98020;;;20.4;70.7
23253;BME280;11795;47.054;15.408;2023-09-08T06:39:59;98020;;;20.6;69.6
23253;BME280;11795;47.054;15.408;2023-09-08T06:41:58;98020;;;20.7;69.2
23253;BME280;11795;47.054;15.408;2023-09-08T06:43:58;98020;;;20.9;68.2
23253;BME280;11795;47.054;15.408;2023-09-08T06:45:58;98020;;;21.0;68.5
23253;BME280;11795;47.054;15.408;2023-09-08T06:48:00;98020;;;21.1;68.1
23253;BME280;11795;47.054;15.408;2023-09-08T06:49:58;98020;;;21.3;67.2
23253;BME280;11795;47.054;15.408;2023-09-08T06:51:58;98020;;;21.4;67.2
23253;BME280;11795;47.054;15.408;2023-09-08T06:54:00;98020;;;21.7;67.3
23253;BME280;11795;47.054;15.408;2023-09-08T06:55:58;98020;;;21.8;66.3
23253;BME280;11795;47.054;15.408;2023-09-08T06:57:58;98020;;;21.9;65.9
23253;BME280;11795;47.054;15.408;2023-09-08T06:59:58;98020;;;22.2;64.5
23253;BME280;11795;47.054;15.408;2023-09-08T07:01:58;98020;;;22.2;64.2
23253;BME280;11795;47.054;15.408;2023-09-08T07:03:58;98020;;;22.5;63.2
23253;BME280;11795;47.054;15.408;2023-09-08T07:05:58;98030;;;22.5;62.3
23253;BME280;11795;47.054;15.408;2023-09-08T07:07:58;98020;;;22.6;61.8
23253;BME280;11795;47.054;15.408;2023-09-08T07:09:58;98030;;;22.7;61.4
23253;BME280;11795;47.054;15.408;2023-09-08T07:11:58;98020;;;22.8;61.1
23253;BME280;11795;47.054;15.408;2023-09-08T07:13:58;98020;;;23.0;60.0
23253;BME280;11795;47.054;15.408;2023-09-08T07:15:58;98020;;;23.0;60.0
23253;BME280;11795;47.054;15.408;2023-09-08T07:17:58;98020;;;23.0;59.8
23253;BME280;11795;47.054;15.408;2023-09-08T07:19:58;98020;;;23.2;59.6
23253;BME280;11795;47.054;15.408;2023-09-08T07:21:58;98020;;;23.2;59.5
23253;BME280;11795;47.054;15.408;2023-09-08T07:23:58;98020;;;23.5;59.1
23253;BME280;11795;47.054;15.408;2023-09-08T07:25:58;98010;;;23.5;59.3
23253;BME280;11795;47.054;15.408;2023-09-08T07:27:58;98010;;;23.6;57.7
23253;BME280;11795;47.054;15.408;2023-09-08T07:29:58;98010;;;23.9;56.9
23253;BME280;11795;47.054;15.408;2023-09-08T07:31:58;98010;;;23.8;56.0
23253;BME280;11795;47.054;15.408;2023-09-08T07:33:58;98010;;;24.0;54.7
23253;BME280;11795;47.054;15.408;2023-09-08T07:36:04;98010;;;23.9;54.0
23253;BME280;11795;47.054;15.408;2023-09-08T07:37:58;98010;;;23.8;53.5
23253;BME280;11795;47.054;15.408;2023-09-08T07:39:58;98010;;;23.9;54.3
23253;BME280;11795;47.054;15.408;2023-09-08T07:41:58;98000;;;24.0;55.2
23253;BME280;11795;47.054;15.408;2023-09-08T07:43:58;98000;;;24.4;54.3
23253;BME280;11795;47.054;15.408;2023-09-08T07:45:58;98000;;;24.5;54.8
23253;BME280;11795;47.054;15.408;2023-09-08T07:47:58;98000;;;24.7;54.6
23253;BME280;11795;47.054;15.408;2023-09-08T07:50:16;98000;;;25.0;53.7
23253;BME280;11795;47.054;15.408;2023-09-08T07:51:58;98000;;;25.1;52.8
23253;BME280;11795;47.054;15.408;2023-09-08T07:53:58;98000;;;25.4;52.8
23253;BME280;11795;47.054;15.408;2023-09-08T07:55:58;98000;;;25.4;52.8
23253;BME280;11795;47.054;15.408;2023-09-08T07:57:58;98000;;;25.5;51.6
23253;BME280;11795;47.054;15.408;2023-09-08T07:59:58;98000;;;25.7;51.3
23253;BME280;11795;47.054;15.408;2023-09-08T08:01:58;98000;;;25.7;51.0
23253;BME280;11795;47.054;15.408;2023-09-08T08:03:58;97990;;;26.0;50.1
23253;BME280;11795;47.054;15.408;2023-09-08T08:05:58;97990;;;25.7;50.1
23253;BME280;11795;47.054;15.408;2023-09-08T08:07:58;97990;;;25.7;49.5
23253;BME280;11795;47.054;15.408;2023-09-08T08:09:58;97990;;;25.9;48.7
23253;BME280;11795;47.054;15.408;2023-09-08T08:11:58;97990;;;25.9;49.7
23253;BME280;11795;47.054;15.408;2023-09-08T08:13:58;97990;;;26.2;49.1
23253;BME280;11795;47.054;15.408;2023-09-08T08:15:58;97990;;;26.0;48.0
23253;BME280;11795;47.054;15.408;2023-09-08T08:17:58;97990;;;25.8;48.8
23253;BME280;11795;47.054;15.408;2023-09-08T08:19:58;97990;;;26.1;49.4
23253;BME280;11795;47.054;15.408;2023-09-08T08:21:58;97990;;;26.0;48.5
23253;BME280;11795;47.054;15.408;2023-09-08T08:23:58;97990;;;26.5;48.6
23253;BME280;11795;47.054;15.408;2023-09-08T08:25:58;97990;;;26.6;46.8
23253;BME280;11795;47.054;15.408;2023-09-08T08:27:58;97990;;;26.8;46.9
23253;BME280;11795;47.054;15.408;2023-09-08T08:29:59;97980;;;27.0;47.0
23253;BME280;11795;47.054;15.408;2023-09-08T08:31:58;97980;;;27.1;47.9
23253;BME280;11795;47.054;15.408;2023-09-08T08:33:58;97980;;;27.5;47.0
23253;BME280;11795;47.054;15.408;2023-09-08T08:35:58;97980;;;27.6;46.1
23253;BME280;11795;47.054;15.408;2023-09-08T08:37:58;97980;;;27.7;46.2
23253;BME280;11795;47.054;15.408;2023-09-08T08:39:58;97970;;;27.6;44.7
23253;BME280;11795;47.054;15.408;2023-09-08T08:42:06;97970;;;27.5;45.0
23253;BME280;11795;47.054;15.408;2023-09-08T08:43:58;97970;;;27.7;43.7
23253;BME280;11795;47.054;15.408;2023-09-08T08:45:59;97970;;;27.5;44.5
23253;BME280;11795;47.054;15.408;2023-09-08T08:47:58;97970;;;27.6;43.8
23253;BME280;11795;47.054;15.408;2023-09-08T08:49:59;97970;;;27.8;42.7
23253;BME280;11795;47.054;15.408;2023-09-08T08:51:59;97960;;;27.7;42.4
23253;BME280;11795;47.054;15.408;2023-09-08T08:53:58;97960;;;27.3;42.2
23253;BME280;11795;47.054;15.408;2023-09-08T08:55:58;97960;;;27.2;43.5
23253;BME280;11795;47.054;15.408;2023-09-08T08:58:03;97960;;;27.5;43.7
23253;BME280;11795;47.054;15.408;2023-09-08T08:59:58;97960;;;28.0;43.5
23253;BME280;11795;47.054;15.408;2023-09-08T09:01:58;97960;;;28.1;43.3
23253;BME280;11795;47.054;15.408;2023-09-08T09:03:58;97960;;;28.3;42.7
23253;BME280;11795;47.054;15.408;2023-09-08T09:05:59;97960;;;28.4;41.2
23253;BME280;11795;47.054;15.408;2023-09-08T09:07:58;97960;;;28.5;41.6
23253;BME280;11795;47.054;15.408;2023-09-08T09:09:58;97960;;;28.8;42.0
23253;BME280;11795;47.054;15.408;2023-09-08T09:11:58;97960;;;28.8;41.2
23253;BME280;11795;47.054;15.408;2023-09-08T09:13:58;97960;;;29.0;40.9
23253;BME280;11795;47.054;15.408;2023-09-08T09:15:58;97960;;;29.0;39.6
23253;BME280;11795;47.054;15.408;2023-09-08T09:18:06;97960;;;29.1;40.2
23253;BME280;11795;47.054;15.408;2023-09-08T09:20:12;97960;;;29.2;39.0
23253;BME280;11795;47.054;15.408;2023-09-08T09:21:59;97960;;;28.8;39.6
23253;BME280;11795;47.054;15.408;2023-09-08T09:23:58;97950;;;28.5;39.3
23253;BME280;11795;47.054;15.408;2023-09-08T09:25:59;97960;;;27.7;40.0
23253;BME280;11795;47.054;15.408;2023-09-08T09:27:59;97960;;;27.8;40.3
23253;BME280;11795;47.054;15.408;2023-09-08T09:29:58;97960;;;28.2;41.9
23253;BME280;11795;47.054;15.408;2023-09-08T09:32:03;97950;;;28.5;42.5
23253;BME280;11795;47.054;15.408;2023-09-08T09:34:02;97950;;;28.9;41.6
23253;BME280;11795;47.054;15.408;2023-09-08T09:35:59;97950;;;29.1;39.9
23253;BME280;11795;47.054;15.408;2023-09-08T09:37:58;97950;;;29.2;39.7
23253;BME280;11795;47.054;15.408;2023-09-08T09:40:00;97950;;;29.4;38.0
23253;BME280;11795;47.054;15.408;2023-09-08T09:41:58;97950;;;29.4;38.3
23253;BME280;11795;47.054;15.408;2023-09-08T09:43:58;97950;;;29.6;39.4
23253;BME280;11795;47.054;15.408;2023-09-08T09:45:58;97950;;;29.9;39.0
23253;BME280;11795;47.054;15.408;2023-09-08T09:47:58;97940;;;29.9;37.9
23253;BME280;11795;47.054;15.408;2023-09-08T09:49:58;97940;;;29.8;36.8
23253;BME280;11795;47.054;15.408;2023-09-08T09:51:58;97940;;;29.3;37.0
23253;BME280;11795;47.054;15.408;2023-09-08T09:53:58;97940;;;28.9;37.5
23253;BME280;11795;47.054;15.408;2023-09-08T09:55:58;97940;;;29.3;38.1
23253;BME280;11795;47.054;15.408;2023-09-08T09:57:59;97940;;;29.5;38.4
23253;BME280;11795;47.054;15.408;2023-09-08T09:59:58;97940;;;29.9;38.3
23253;BME280;11795;47.054;15.408;2023-09-08T10:01:58;97940;;;30.1;39.1
23253;BME280;11795;47.054;15.408;2023-09-08T10:03:58;97940;;;30.3;37.7
23253;BME280;11795;47.054;15.408;2023-09-08T10:05:58;97940;;;30.5;36.5
23253;BME280;11795;47.054;15.408;2023-09-08T10:07:58;97940;;;30.4;36.1
23253;BME280;11795;47.054;15.408;2023-09-08T10:09:58;97940;;;30.6;35.8
23253;BME280;11795;47.054;15.408;2023-09-08T10:12:03;97940;;;30.5;34.6
23253;BME280;11795;47.054;15.408;2023-09-08T10:13:58;97940;;;30.2;34.9
23253;BME280;11795;47.054;15.408;2023-09-08T10:15:58;97930;;;30.2;33.8
23253;BME280;11795;47.054;15.408;2023-09-08T10:18:04;97930;;;30.0;33.9
23253;BME280;11795;47.054;15.408;2023-09-08T10:20:00;97930;;;30.0;34.9
23253;BME280;11795;47.054;15.408;2023-09-08T10:22:00;97920;;;29.9;35.1
23253;BME280;11795;47.054;15.408;2023-09-08T10:24:02;97920;;;29.4;35.4
23253;BME280;11795;47.054;15.408;2023-09-08T10:26:02;97920;;;29.5;36.7
23253;BME280;11795;47.054;15.408;2023-09-08T10:27:58;97920;;;29.5;36.6
23253;BME280;11795;47.054;15.408;2023-09-08T10:30:00;97910;;;29.7;36.5
23253;BME280;11795;47.054;15.408;2023-09-08T10:31:58;97910;;;29.8;36.5
23253;BME280;11795;47.054;15.408;2023-09-08T10:33:58;97910;;;29.7;34.8
23253;BME280;11795;47.054;15.408;2023-09-08T10:35:58;97910;;;29.3;34.8
23253;BME280;11795;47.054;15.408;2023-09-08T10:44:02;97910;;;29.6;36.1
23253;BME280;11795;47.054;15.408;2023-09-08T10:45:58;97910;;;29.7;34.4
23253;BME280;11795;47.054;15.408;2023-09-08T10:47:58;97910;;;29.6;35.4
23253;BME280;11795;47.054;15.408;2023-09-08T10:50:01;97910;;;29.8;35.2
23253;BME280;11795;47.054;15.408;2023-09-08T10:52:07;97900;;;29.7;34.4
23253;BME280;11795;47.054;15.408;2023-09-08T10:53:58;97900;;;29.3;34.5
23253;BME280;11795;47.054;15.408;2023-09-08T10:55:57;97900;;;29.3;35.4
23253;BME280;11795;47.054;15.408;2023-09-08T10:57:57;97900;;;29.3;36.1
23253;BME280;11795;47.054;15.408;2023-09-08T11:00:00;97900;;;29.7;36.1
23253;BME280;11795;47.054;15.408;2023-09-08T11:01:58;97900;;;29.5;34.6
23253;BME280;11795;47.054;15.408;2023-09-08T11:03:58;97900;;;29.2;35.2
23253;BME280;11795;47.054;15.408;2023-09-08T11:05:58;97890;;;29.0;35.6
23253;BME280;11795;47.054;15.408;2023-09-08T11:07:59;97890;;;28.8;35.7
23253;BME280;11795;47.054;15.408;2023-09-08T11:09:58;97890;;;28.9;36.3
23253;BME280;11795;47.054;15.408;2023-09-08T11:12:01;97890;;;28.5;36.1
23253;BME280;11795;47.054;15.408;2023-09-08T11:13:58;97890;;;28.4;36.8
23253;BME280;11795;47.054;15.408;2023-09-08T11:15:58;97900;;;28.6;37.0
23253;BME280;11795;47.054;15.408;2023-09-08T11:18:04;97900;;;28.5;37.4
23253;BME280;11795;47.054;15.408;2023-09-08T11:19:58;97900;;;28.7;37.6